Friday, November 17, 2017, 4:09 PM EST
Back to Local

KJFK, Kennedy International Airport

Location: Rosedale, NY, United States Lat: 40.633
Local Time: 4:09 PM EST (21:09 GMT) Lon: -73.767
Time Zone: US/Eastern Elev: 13 ft

Show me the last for .
Show Coded

Time T Td Feel RH Dir Speed Gust Alt SLP Vis Weather Sky Remarks
2017-11-17 15:51 47 15 40 27 310° 20 - 30.07 30.07 10 SCT250 Peak wind: 29 mph (26 kts) from 290° at 58 min
2017-11-17 14:51 48 18 40 29 300° 22 29 30.06 30.06 10 SCT250 Peak wind: 29 mph (26 kts) from 290° at 39 min
2017-11-17 13:51 48 21 39 34 300° 15 30 30.06 30.06 10 FEW250 Peak wind: 29 mph (26 kts) from 270° at 48 min
2017-11-17 12:51 47 23 38 38 290° 24 28 30.06 30.06 10 FEW055 FEW250 Peak wind: 29 mph (26 kts) from 300° at 52 min
6-hr Min Temp (1pm): 39.9°F
6-hr Max Temp (1pm): 46.9°F
2017-11-17 11:51 46 24 37 41 290° 21 29 30.06 30.06 10 FEW050 FEW250 Peak wind: 31 mph (27 kts) from 300° at 33 min
2017-11-17 10:51 45 26 36 47 290° 21 26 30.08 30.07 10 FEW050 Peak wind: 33 mph (29 kts) from 300° at 58 min
2017-11-17 09:51 43 25 33 48 310° 24 30 30.09 30.09 10 SCT044 Peak wind: 29 mph (26 kts) from 310° at 48 min
2017-11-17 08:51 42 26 32 52 300° 15 25 30.06 30.05 10 SCT039 SCT047 Peak wind: 35 mph (31 kts) from 300° at 10 min
2017-11-17 07:51 40 26 28 57 300° 24 33 30.05 30.04 10 FEW045 Peak wind: 34 mph (30 kts) from 320° at 56 min
2017-11-17 06:51 40 25 28 54 320° 24 33 30.02 30.02 10 SCT047 Peak wind: 37 mph (33 kts) from 330° at 26 min
24-hr Precip Total (7am): 0.12"
6-hr Min Temp (7am): 39.9°F
6-hr Max Temp (7am): 44.1°F
2017-11-17 05:51 40 25 28 54 310° 21 31 30.00 30.00 10 FEW047 Peak wind: 33 mph (29 kts) from 320° at 32 min
2017-11-17 04:51 42 26 31 52 310° 22 29 29.99 29.98 10 SCT047 Peak wind: 35 mph (31 kts) from 300° at 22 min
2017-11-17 03:51 43 27 32 52 300° 29 36 29.97 29.96 10 BKN047 Peak wind: 35 mph (31 kts) from 290° at 51 min
2017-11-17 02:51 43 30 33 59 290° 24 30 29.95 29.95 10 FEW039 Peak wind: 29 mph (26 kts) from 290° at 51 min
2017-11-17 01:51 43 31 35 62 310° 18 - 29.94 29.93 10 FEW034 FEW060 Peak wind: 32 mph (28 kts) from 300° at 09 min
2017-11-17 00:51 44 34 34 67 300° 18 30 29.93 29.92 10 SCT036 BKN065 Peak wind: 31 mph (27 kts) from 280° at 37 min
6-hr Precip Total (1am): 0.00"
6-hr Min Temp (1am): 44.1°F
6-hr Max Temp (1am): 48.9°F
2017-11-16 23:51 44 37 38 76 290° 13 - 29.91 29.91 10 BKN040 BKN075 1-hr Precip Total: Trace
24-hr Min Temp (12am): 44.1°F
24-hr Max Temp (12am): 57.0°F
2017-11-16 22:51 46 35 39 65 320° 17 - 29.91 29.90 10 BKN035 BKN055 BKN075 1-hr Precip Total: Trace
2017-11-16 21:51 47 34 38 60 270° 20 28 29.90 29.90 10 FEW039 SCT047 None
2017-11-16 20:51 47 34 39 60 260° 21 25 29.89 29.88 10 FEW045 FEW085 Peak wind: 32 mph (28 kts) from 270° at 53 min
2017-11-16 19:51 48 33 39 56 280° 21 32 29.87 29.86 10 FEW045 FEW085 Peak wind: 32 mph (28 kts) from 290° at 47 min
2017-11-16 18:51 49 34 41 56 280° 20 29 29.86 29.85 10 FEW045 FEW085 6-hr Min Temp (7pm): 48.9°F
6-hr Max Temp (7pm): 57.0°F
2017-11-16 17:51 50 35 44 56 270° 17 - 29.84 29.84 10 FEW047 FEW085 Peak wind: 32 mph (28 kts) from 310° at 14 min
2017-11-16 16:51 51 34 - 51 300° 22 30 29.82 29.82 10 FEW047 FEW085 Peak wind: 29 mph (26 kts) from 300° at 50 min

Support USWX by starting your Amazon purchase here.